Time;durP1;ratioP1;P1;durP2;ratioP2;P2;SDS_P1;SDS_P2;PMS_P1;PMS_P2;Temp;Humidity;BMP_temperature;BMP_pressure;BME280_temperature;BME280_humidity;BME280_pressure;Samples;Min_cycle;Max_cycle;Signal;HPM_P1;HPM_P2
2023/05/30 00:02:02;;;;;;;12.50;11.03;;;;;;;-143.84;97.52;44089.50;4992297;28;20443;-60
2023/05/30 00:04:31;;;;;;;18.37;11.90;;;;;;;-143.84;97.84;44076.19;4992083;28;20479;-60
2023/05/30 00:06:58;;;;;;;13.13;11.83;;;;;;;-143.84;97.95;44087.59;4992207;28;20442;-60
2023/05/30 00:09:25;;;;;;;30.43;11.50;;;;;;;-143.84;97.83;44081.88;4992149;28;20446;-60
2023/05/30 00:11:54;;;;;;;18.13;11.90;;;;;;;-143.84;97.94;44089.50;4991682;28;20458;-60
2023/05/30 00:14:21;;;;;;;27.27;12.30;;;;;;;-143.84;97.93;44091.41;4991769;28;20457;-60
2023/05/30 00:16:48;;;;;;;18.70;12.70;;;;;;;-143.84;98.03;44085.69;4991758;28;20482;-60
2023/05/30 00:19:16;;;;;;;13.93;12.50;;;;;;;-143.84;97.92;44085.69;4991787;28;20947;-60
2023/05/30 00:21:45;;;;;;;17.70;12.80;;;;;;;-143.84;97.97;44089.50;4991975;28;20504;-60
2023/05/30 00:24:13;;;;;;;15.40;11.37;;;;;;;-143.84;98.09;44106.63;4991854;28;20838;-60
2023/05/30 00:26:40;;;;;;;21.37;12.87;;;;;;;-143.84;98.27;44093.31;4991573;28;20454;-60
2023/05/30 00:29:07;;;;;;;16.83;11.87;;;;;;;-143.84;98.14;44099.03;4991503;28;20444;-60
2023/05/30 00:31:34;;;;;;;18.50;13.37;;;;;;;-143.84;98.28;44078.09;4991776;28;20492;-60
2023/05/30 00:34:01;;;;;;;18.80;12.37;;;;;;;-143.84;98.37;44099.03;4991202;28;20452;-60
2023/05/30 00:36:28;;;;;;;26.93;13.10;;;;;;;-143.84;98.26;44099.03;4991277;28;20569;-60
2023/05/30 00:38:57;;;;;;;15.60;12.50;;;;;;;-143.84;98.43;44095.22;4991712;28;20830;-60
2023/05/30 00:41:24;;;;;;;15.67;12.27;;;;;;;-143.84;98.56;44116.16;4991411;28;21147;-60
2023/05/30 00:43:51;;;;;;;19.10;12.80;;;;;;;-143.84;98.75;44104.72;4991393;28;20499;-60
2023/05/30 00:46:19;;;;;;;17.60;12.30;;;;;;;-143.84;98.71;44114.25;4991297;28;20442;-60
2023/05/30 00:48:47;;;;;;;17.23;12.50;;;;;;;-143.84;98.72;44121.88;4991732;28;20446;-60
2023/05/30 00:51:14;;;;;;;15.07;12.83;;;;;;;-143.84;98.86;44110.44;4991435;28;20967;-60
2023/05/30 00:53:42;;;;;;;16.43;13.83;;;;;;;-143.84;98.88;44118.06;4991515;28;20465;-60
2023/05/30 00:56:12;;;;;;;16.47;13.70;;;;;;;-143.84;99.13;44127.56;4991149;28;20442;-60
2023/05/30 00:58:40;;;;;;;16.50;13.67;;;;;;;-143.84;99.36;44121.88;4991327;28;20568;-60
2023/05/30 01:01:07;;;;;;;16.13;12.73;;;;;;;-143.84;99.40;44125.69;4990970;28;20458;-60
2023/05/30 01:03:35;;;;;;;21.70;13.10;;;;;;;-143.84;99.26;44142.81;4990787;28;21082;-60
2023/05/30 01:06:04;;;;;;;22.37;12.70;;;;;;;-143.84;99.19;44127.56;4990847;28;20505;-60
2023/05/30 01:08:31;;;;;;;17.73;12.93;;;;;;;-143.84;99.51;44129.47;4990998;28;20446;-60
2023/05/30 01:11:07;;;;;;;15.90;12.87;;;;;;;-143.84;99.66;44140.91;4990652;28;20988;-60
2023/05/30 01:13:42;;;;;;;14.83;13.07;;;;;;;-143.84;99.54;44137.09;4990976;28;20928;-60
2023/05/30 01:16:14;;;;;;;15.03;13.17;;;;;;;-143.84;99.77;44139.00;4990644;28;20445;-60
2023/05/30 01:18:46;;;;;;;28.80;14.27;;;;;;;-143.84;99.86;44144.72;4990724;28;20480;-60
2023/05/30 01:21:16;;;;;;;13.63;12.20;;;;;;;-143.84;99.83;44137.09;4990719;28;20520;-60
2023/05/30 01:24:07;;;;;;;15.30;13.33;;;;;;;-143.84;99.67;44142.81;4990598;28;20484;-60
2023/05/30 01:26:48;;;;;;;19.40;13.67;;;;;;;-143.84;100.00;44142.81;4990755;28;20932;-60
2023/05/30 01:29:24;;;;;;;20.10;13.07;;;;;;;-143.84;99.83;44154.22;4990601;28;20456;-60
2023/05/30 01:31:53;;;;;;;16.83;13.20;;;;;;;-143.84;99.73;44144.72;4990721;28;20445;-60
2023/05/30 01:34:21;;;;;;;14.97;13.37;;;;;;;-143.84;99.70;44140.91;4990368;28;20552;-60
2023/05/30 01:36:48;;;;;;;22.80;13.93;;;;;;;-143.84;99.74;44139.00;4990140;28;20532;-60
2023/05/30 01:39:15;;;;;;;25.20;13.67;;;;;;;-143.84;99.54;44129.47;4990179;28;20446;-60
2023/05/30 01:41:53;;;;;;;15.33;13.67;;;;;;;-143.84;99.41;44125.69;4990517;28;20891;-60
2023/05/30 01:44:29;;;;;;;19.43;13.67;;;;;;;-143.84;99.22;44129.47;4990287;28;20441;-60
2023/05/30 01:47:02;;;;;;;21.10;13.63;;;;;;;-143.84;99.22;44125.69;4989850;28;20895;-60
2023/05/30 01:49:38;;;;;;;14.67;13.07;;;;;;;-143.84;99.18;44131.38;4990274;28;20474;-60
2023/05/30 01:52:11;;;;;;;16.80;13.50;;;;;;;-143.84;99.08;44125.69;4990288;28;20440;-60
2023/05/30 01:54:41;;;;;;;15.87;13.10;;;;;;;-143.84;99.60;44139.00;4990380;28;20441;-60
2023/05/30 01:57:12;;;;;;;17.00;13.37;;;;;;;-143.84;99.71;44142.81;4989879;28;20545;-60
2023/05/30 01:59:43;;;;;;;18.07;12.97;;;;;;;-143.84;99.71;44139.00;4990301;28;20445;-60
2023/05/30 02:02:10;;;;;;;17.33;13.73;;;;;;;-143.84;99.54;44137.09;4989445;28;20450;-60
2023/05/30 02:04:38;;;;;;;14.90;12.70;;;;;;;-143.84;99.54;44133.28;4989591;28;20540;-60
2023/05/30 02:07:06;;;;;;;16.00;13.50;;;;;;;-143.84;99.55;44123.78;4989970;28;20458;-60
2023/05/30 02:09:33;;;;;;;16.70;13.40;;;;;;;-143.84;99.60;44139.00;4989731;28;20445;-60
2023/05/30 02:12:01;;;;;;;22.53;14.70;;;;;;;-143.84;99.86;44150.41;4989861;28;20992;-60
2023/05/30 02:14:28;;;;;;;16.43;13.77;;;;;;;-143.84;99.88;44150.41;4989952;28;20918;-60
2023/05/30 02:16:59;;;;;;;26.37;15.33;;;;;;;-143.84;99.73;44129.47;4989676;28;20489;-60
2023/05/30 02:19:26;;;;;;;17.00;14.63;;;;;;;-143.84;99.79;44142.81;4989687;28;20458;-60
2023/05/30 02:21:53;;;;;;;19.90;15.40;;;;;;;-143.84;99.97;44152.31;4989835;28;20450;-61
2023/05/30 02:24:21;;;;;;;19.53;14.43;;;;;;;-143.84;100.00;44144.72;4989802;28;20499;-61
2023/05/30 02:26:48;;;;;;;18.03;13.13;;;;;;;-143.84;100.00;44152.31;4989991;28;20532;-61
2023/05/30 02:29:15;;;;;;;18.80;13.70;;;;;;;-143.84;100.00;44148.53;4989779;28;20441;-61
2023/05/30 02:31:42;;;;;;;20.73;14.20;;;;;;;-143.84;100.00;44144.72;4989410;28;20450;-61
2023/05/30 02:34:11;;;;;;;18.93;14.43;;;;;;;-143.84;100.00;44158.03;4989982;28;20438;-61
2023/05/30 02:36:39;;;;;;;24.10;13.70;;;;;;;-143.84;100.00;44159.94;4989724;28;20509;-61
2023/05/30 02:39:07;;;;;;;21.60;14.53;;;;;;;-143.84;100.00;44146.63;4989864;28;20917;-61
2023/05/30 02:41:36;;;;;;;17.17;14.73;;;;;;;-143.84;100.00;44152.31;4989656;28;20966;-60
2023/05/30 02:44:03;;;;;;;18.30;14.67;;;;;;;-143.84;100.00;44161.84;4989540;28;20468;-60
2023/05/30 02:46:31;;;;;;;20.20;15.03;;;;;;;-143.84;100.00;44158.03;4989690;28;20494;-60
2023/05/30 02:48:58;;;;;;;15.97;14.27;;;;;;;-143.84;100.00;44161.84;4989552;28;20449;-60
2023/05/30 02:51:26;;;;;;;20.30;14.80;;;;;;;-143.84;100.00;44156.13;4989309;28;20442;-60
2023/05/30 02:53:53;;;;;;;16.40;14.50;;;;;;;-143.84;99.97;44156.13;4989499;28;20449;-60
2023/05/30 02:56:24;;;;;;;17.50;13.63;;;;;;;-143.84;100.00;44150.41;4989495;28;20463;-60
2023/05/30 02:58:51;;;;;;;16.70;14.90;;;;;;;-143.84;100.00;44146.63;4992559;28;20544;-60
2023/05/30 03:01:18;;;;;;;15.00;13.20;;;;;;;-143.84;100.00;44152.31;4993184;28;20470;-60
2023/05/30 03:03:47;;;;;;;19.70;13.70;;;;;;;-143.84;99.96;44144.72;4992882;28;20535;-60
2023/05/30 03:06:14;;;;;;;16.57;14.80;;;;;;;-143.84;99.82;44146.63;4992952;28;20455;-59
2023/05/30 03:08:43;;;;;;;17.00;13.63;;;;;;;-143.84;99.93;44133.28;4993517;28;20845;-60
2023/05/30 03:11:10;;;;;;;16.17;13.50;;;;;;;-143.84;99.76;44135.19;4993312;28;20512;-59
2023/05/30 03:13:38;;;;;;;18.20;13.23;;;;;;;-143.84;99.86;44137.09;4993165;28;20450;-59
2023/05/30 03:16:06;;;;;;;16.00;14.33;;;;;;;-143.84;99.75;44140.91;4993003;28;20441;-60
2023/05/30 03:18:33;;;;;;;14.63;13.23;;;;;;;-143.84;99.57;44139.00;4992802;28;20482;-59
2023/05/30 03:21:00;;;;;;;14.20;12.70;;;;;;;-143.84;99.37;44127.56;4992813;28;20999;-59
2023/05/30 03:23:27;;;;;;;24.43;13.27;;;;;;;-143.84;99.26;44125.69;4992844;28;20444;-60
2023/05/30 03:25:56;;;;;;;15.17;13.57;;;;;;;-143.84;99.30;44133.28;4992866;28;20443;-60
2023/05/30 03:28:23;;;;;;;16.00;14.30;;;;;;;-143.84;98.78;44108.53;4992762;28;20873;-59
2023/05/30 03:30:50;;;;;;;16.73;12.53;;;;;;;-143.84;98.71;44108.53;4992703;28;20815;-59
2023/05/30 03:33:17;;;;;;;17.23;14.20;;;;;;;-143.84;98.58;44099.03;4992492;28;20440;-60
2023/05/30 03:35:45;;;;;;;15.00;13.30;;;;;;;-143.84;98.32;44100.94;4992450;28;20453;-60
2023/05/30 03:38:12;;;;;;;16.00;13.30;;;;;;;-143.84;97.75;44085.69;4992535;28;21012;-60
2023/05/30 03:40:39;;;;;;;18.00;13.03;;;;;;;-143.84;97.15;44060.94;4992450;28;20445;-60
2023/05/30 03:43:07;;;;;;;14.53;12.70;;;;;;;-143.84;96.99;44059.03;4992554;28;21090;-60
2023/05/30 03:45:34;;;;;;;14.33;12.93;;;;;;;-143.84;95.89;44024.78;4992675;28;21140;-59
2023/05/30 03:48:01;;;;;;;12.63;11.43;;;;;;;-143.84;94.82;43998.13;4992486;28;20441;-59
2023/05/30 03:50:29;;;;;;;12.93;11.73;;;;;;;-143.84;93.53;43965.78;4992799;28;20537;-59
2023/05/30 03:52:56;;;;;;;13.10;11.87;;;;;;;-143.84;91.98;43902.97;4992786;28;20451;-60
2023/05/30 03:55:23;;;;;;;18.30;11.30;;;;;;;-143.84;91.19;43895.34;4992580;28;20506;-60
2023/05/30 03:57:50;;;;;;;12.30;10.70;;;;;;;-143.84;90.03;43862.97;4992098;28;20484;-60
2023/05/30 04:00:18;;;;;;;12.30;10.57;;;;;;;-143.84;88.50;43840.13;4992429;28;20514;-60
2023/05/30 04:02:46;;;;;;;17.53;11.17;;;;;;;-143.84;87.56;43803.97;4991945;28;20452;-60
2023/05/30 04:05:13;;;;;;;12.80;10.10;;;;;;;-143.84;85.90;43855.38;4992031;28;21047;-60
2023/05/30 04:07:40;;;;;;;16.77;10.07;;;;;;;-143.84;85.03;43935.31;4992321;28;20441;-60
2023/05/30 04:10:08;;;;;;;13.17;10.30;;;;;;;-143.84;84.18;44040.00;4991462;28;20503;-60
2023/05/30 04:12:35;;;;;;;10.87;9.07;;;;;;;-143.84;83.99;44089.50;4991909;28;20966;-60
2023/05/30 04:15:02;;;;;;;10.80;9.73;;;;;;;-143.84;83.59;44167.56;4991644;28;20469;-60
2023/05/30 04:17:31;;;;;;;12.90;9.23;;;;;;;-143.84;82.99;44215.16;4991995;28;20879;-60
2023/05/30 04:19:58;;;;;;;10.43;9.27;;;;;;;-143.84;82.60;44277.97;4991604;28;20553;-60
2023/05/30 04:22:25;;;;;;;14.10;10.17;;;;;;;-143.84;82.45;44317.94;4991627;28;20482;-60
2023/05/30 04:24:53;;;;;;;21.87;10.60;;;;;;;-143.84;82.18;44399.81;4991452;28;20491;-60
2023/05/30 04:27:20;;;;;;;9.43;8.20;;;;;;;-143.84;81.20;44525.47;4991483;28;20504;-60
2023/05/30 04:29:47;;;;;;;12.77;9.03;;;;;;;-143.84;80.64;44641.59;4991733;28;20508;-60
2023/05/30 04:32:14;;;;;;;13.13;9.17;;;;;;;-143.84;80.74;44654.94;4991483;28;20448;-60
2023/05/30 04:34:43;;;;;;;13.00;8.13;;;;;;;-143.84;79.94;44706.34;4991665;28;20445;-60
2023/05/30 04:37:12;;;;;;;11.93;8.50;;;;;;;-143.84;80.12;44710.16;4973346;28;20474;-60
2023/05/30 04:39:39;;;;;;;13.33;9.07;;;;;;;-143.84;79.19;44774.88;4971569;28;20482;-60
2023/05/30 04:42:07;;;;;;;13.83;9.00;;;;;;;-143.84;78.40;44828.19;4972148;28;20456;-60
2023/05/30 04:44:38;;;;;;;12.87;9.27;;;;;;;-143.84;77.95;44845.31;4972152;28;20466;-60
2023/05/30 04:47:07;;;;;;;19.00;9.10;;;;;;;-143.84;76.80;44913.88;4971784;28;20451;-60
2023/05/30 04:49:41;;;;;;;11.27;8.83;;;;;;;-143.84;76.56;44931.00;4971828;28;20459;-60
2023/05/30 04:52:09;;;;;;;10.53;9.43;;;;;;;-143.84;76.05;44917.69;4971981;28;20530;-60
2023/05/30 04:54:36;;;;;;;11.37;9.33;;;;;;;-143.84;74.78;44980.53;4971775;28;20495;-60
2023/05/30 04:57:04;;;;;;;16.73;8.83;;;;;;;-143.84;74.88;44948.16;4971526;28;20497;-60
2023/05/30 04:59:31;;;;;;;9.03;8.13;;;;;;;-143.84;73.20;44978.63;4971828;28;20492;-60
2023/05/30 05:01:58;;;;;;;8.90;7.40;;;;;;;-143.84;72.40;45010.97;4971667;28;20435;-60
2023/05/30 05:04:26;;;;;;;12.90;8.57;;;;;;;-143.84;70.57;45047.16;4978798;28;20549;-60
2023/05/30 05:06:53;;;;;;;8.53;7.20;;;;;;;-143.84;69.47;45047.16;4991131;28;20455;-60
2023/05/30 05:09:24;;;;;;;7.90;7.10;;;;;;;-143.84;68.88;45020.50;4990962;28;20507;-60
2023/05/30 05:11:51;;;;;;;11.67;8.20;;;;;;;-143.84;67.94;45070.00;4990985;28;20453;-60
2023/05/30 05:14:19;;;;;;;10.13;7.53;;;;;;;-143.84;66.63;45039.53;4990775;28;20459;-60
2023/05/30 05:16:46;;;;;;;16.00;7.97;;;;;;;-143.84;66.04;45066.22;4990653;28;20482;-60
2023/05/30 05:19:13;;;;;;;10.43;7.40;;;;;;;-143.84;63.59;45081.44;4990628;28;20479;-60
2023/05/30 05:21:40;;;;;;;20.90;7.13;;;;;;;-143.84;61.89;45073.81;4989648;28;20483;-60
2023/05/30 05:24:09;;;;;;;7.63;6.90;;;;;;;-143.84;60.18;45068.13;4990958;28;20495;-60
2023/05/30 05:26:37;;;;;;;12.13;7.40;;;;;;;-143.84;58.82;45064.31;4990665;28;20459;-60
2023/05/30 05:29:04;;;;;;;8.17;6.07;;;;;;;-143.84;58.06;45075.72;4990399;28;20523;-60
2023/05/30 05:31:33;;;;;;;9.10;6.70;;;;;;;-143.84;59.22;45071.91;4990173;28;20445;-60
2023/05/30 05:34:00;;;;;;;19.43;7.00;;;;;;;-143.84;59.53;45030.03;4990181;28;20531;-60
2023/05/30 05:36:27;;;;;;;7.73;6.87;;;;;;;-143.84;59.73;45071.91;4990430;28;20463;-60
2023/05/30 05:38:54;;;;;;;16.57;7.83;;;;;;;-143.84;59.97;45043.34;4990327;28;20484;-60
2023/05/30 05:41:21;;;;;;;7.20;6.33;;;;;;;-143.84;60.24;45050.97;4990619;28;20508;-60
2023/05/30 05:43:50;;;;;;;11.97;6.70;;;;;;;-143.84;60.29;45068.13;4990329;28;20475;-60
2023/05/30 05:46:17;;;;;;;10.00;6.80;;;;;;;-143.84;61.02;45089.06;4990318;28;20490;-60
2023/05/30 05:48:44;;;;;;;9.33;6.70;;;;;;;-143.84;60.67;45058.59;4990398;28;20443;-60
2023/05/30 05:51:12;;;;;;;10.97;6.67;;;;;;;-143.84;58.65;45050.97;4990119;28;20970;-60
2023/05/30 05:53:39;;;;;;;10.13;6.83;;;;;;;-143.84;57.45;45070.00;4990219;28;20923;-60
2023/05/30 05:56:06;;;;;;;14.07;6.83;;;;;;;-143.84;55.30;45052.88;4990169;28;20464;-60
2023/05/30 05:58:33;;;;;;;11.60;8.00;;;;;;;-143.84;53.83;45056.69;4990409;28;20888;-60
2023/05/30 06:01:02;;;;;;;13.17;6.10;;;;;;;-143.84;53.24;45068.13;4990028;28;21026;-60
2023/05/30 06:03:29;;;;;;;14.80;6.40;;;;;;;-143.84;51.90;45049.06;4989726;28;20877;-60
2023/05/30 06:05:56;;;;;;;11.13;6.53;;;;;;;-143.84;50.17;45030.03;4970364;28;20501;-60
2023/05/30 06:08:23;;;;;;;11.10;5.70;;;;;;;-143.84;49.08;45049.06;4970627;28;20945;-60
2023/05/30 06:10:51;;;;;;;10.77;5.13;;;;;;;-143.84;47.64;45028.13;4970716;28;20504;-60
2023/05/30 06:13:18;;;;;;;11.70;5.77;;;;;;;-143.84;47.20;45033.84;4970298;28;20462;-60
2023/05/30 06:15:45;;;;;;;11.53;5.40;;;;;;;-143.84;45.69;45018.59;4970472;28;20520;-60
2023/05/30 06:18:13;;;;;;;10.73;6.07;;;;;;;-143.84;45.86;45026.22;4970226;28;20476;-60
2023/05/30 06:20:41;;;;;;;11.40;5.60;;;;;;;-143.84;44.63;45026.22;4970501;28;21350;-60
2023/05/30 06:23:08;;;;;;;6.80;4.90;;;;;;;-143.84;44.04;45028.13;4970116;28;20450;-60
2023/05/30 06:25:35;;;;;;;6.97;5.93;;;;;;;-143.84;43.52;45016.69;4970366;28;20438;-60
2023/05/30 06:28:02;;;;;;;6.03;5.40;;;;;;;-143.84;43.54;45007.19;4970056;28;20442;-60
2023/05/30 06:30:39;;;;;;;16.10;5.80;;;;;;;-143.84;42.77;45010.97;4970577;28;20508;-60
2023/05/30 06:33:06;;;;;;;11.70;5.53;;;;;;;-143.84;42.39;45012.88;4969988;28;20512;-60
2023/05/30 06:35:34;;;;;;;6.40;5.33;;;;;;;-143.84;42.11;45007.19;4970077;28;20454;-60
2023/05/30 06:38:01;;;;;;;11.90;5.67;;;;;;;-143.84;42.32;45003.38;4969659;28;21064;-60
2023/05/30 06:40:29;;;;;;;7.80;5.13;;;;;;;-143.84;41.75;45020.50;4969688;28;20528;-60
2023/05/30 06:42:56;;;;;;;15.87;5.17;;;;;;;-143.84;42.13;45003.38;4969599;28;20454;-60
2023/05/30 06:45:23;;;;;;;6.20;5.37;;;;;;;-143.84;41.93;45037.66;4970010;28;20794;-60
2023/05/30 06:47:50;;;;;;;5.97;5.30;;;;;;;-143.84;41.64;45001.47;4970029;28;20500;-60
2023/05/30 06:50:18;;;;;;;10.40;6.57;;;;;;;-143.84;42.06;45031.94;4970097;28;20885;-60
2023/05/30 06:52:46;;;;;;;13.20;6.20;;;;;;;-143.84;42.98;45007.19;4970038;28;20453;-60
2023/05/30 06:55:15;;;;;;;11.40;5.60;;;;;;;-143.84;41.63;45031.94;4969891;28;20446;-60
2023/05/30 06:57:44;;;;;;;11.60;5.97;;;;;;;-143.84;41.23;45014.78;4969974;28;20551;-60
2023/05/30 07:00:12;;;;;;;5.50;4.83;;;;;;;-143.84;40.83;45016.69;4969882;28;20482;-60
2023/05/30 07:02:39;;;;;;;6.57;5.57;;;;;;;-143.84;39.43;45005.28;4969302;28;20795;-60
2023/05/30 07:05:07;;;;;;;6.07;5.00;;;;;;;-143.84;39.69;45003.38;4982079;28;20508;-60
2023/05/30 07:07:35;;;;;;;7.30;4.90;;;;;;;-143.84;39.65;45003.38;4989127;28;20441;-60
2023/05/30 07:10:04;;;;;;;11.27;5.10;;;;;;;-143.84;39.90;44999.56;4989617;28;20508;-60
2023/05/30 07:12:31;;;;;;;9.87;4.73;;;;;;;-143.84;39.80;44976.72;4989156;28;20441;-60
2023/05/30 07:14:58;;;;;;;10.73;5.10;;;;;;;-143.84;37.20;45007.19;4989157;28;20452;-60
2023/05/30 07:17:25;;;;;;;7.20;4.90;;;;;;;-143.84;37.98;44995.75;4989145;28;20927;-60
2023/05/30 07:19:52;;;;;;;5.80;4.83;;;;;;;-143.84;36.82;44957.66;4989303;28;20480;-60
2023/05/30 07:22:19;;;;;;;8.30;4.90;;;;;;;-143.84;37.04;44984.31;4989144;28;20441;-60
2023/05/30 07:24:47;;;;;;;9.80;5.10;;;;;;;-143.84;36.92;44991.94;4989186;28;20445;-60
2023/05/30 07:27:15;;;;;;;6.50;5.20;;;;;;;-143.84;36.73;44980.53;4989274;28;20441;-60
2023/05/30 07:29:42;;;;;;;6.73;4.50;;;;;;;-143.84;37.07;44957.66;4989304;28;20866;-60
2023/05/30 07:32:10;;;;;;;8.43;4.70;;;;;;;-143.84;36.86;44972.91;4989170;28;20454;-60
2023/05/30 07:34:37;;;;;;;10.63;5.20;;;;;;;-143.84;36.52;44969.09;4988958;28;20536;-60
2023/05/30 07:37:05;;;;;;;7.93;4.67;;;;;;;-143.84;36.99;44948.16;4989327;28;20507;-60
2023/05/30 07:39:32;;;;;;;12.20;5.07;;;;;;;-143.84;35.28;44951.97;4989071;28;20481;-60
2023/05/30 07:42:00;;;;;;;8.50;5.10;;;;;;;-143.84;36.10;44940.53;4988552;28;20507;-60
2023/05/30 07:44:28;;;;;;;8.73;5.57;;;;;;;-143.84;35.82;44942.44;4989274;28;20480;-60
2023/05/30 07:46:55;;;;;;;4.53;4.10;;;;;;;-143.84;35.27;44948.16;4992271;28;20515;-60
2023/05/30 07:49:22;;;;;;;5.20;4.30;;;;;;;-143.84;35.25;44957.66;4991914;28;20449;-60
2023/05/30 07:51:50;;;;;;;10.10;4.40;;;;;;;-143.84;34.70;44932.91;4992197;28;20441;-60
2023/05/30 07:54:17;;;;;;;6.60;4.70;;;;;;;-143.84;34.88;44940.53;4992432;28;20476;-60
2023/05/30 07:56:44;;;;;;;7.27;4.87;;;;;;;-143.84;36.59;44913.88;4992293;28;20983;-60
2023/05/30 07:59:11;;;;;;;7.90;5.20;;;;;;;-143.84;35.38;44963.38;4992284;28;20543;-60
2023/05/30 08:01:39;;;;;;;5.23;4.70;;;;;;;-143.84;36.01;44972.91;4992332;28;20493;-60
2023/05/30 08:04:06;;;;;;;6.03;4.57;;;;;;;-143.84;35.23;44963.38;4991906;28;20488;-60
2023/05/30 08:06:35;;;;;;;9.67;4.20;;;;;;;-143.84;35.45;44969.09;4991992;28;20441;-60
2023/05/30 08:09:02;;;;;;;7.03;4.40;;;;;;;-143.84;34.45;44969.09;4992117;28;20495;-60
2023/05/30 08:11:29;;;;;;;9.00;5.10;;;;;;;-143.84;34.95;44978.63;4992088;28;20441;-60
2023/05/30 08:13:56;;;;;;;5.57;4.60;;;;;;;-143.84;35.25;44953.88;4992028;28;20503;-60
2023/05/30 08:16:23;;;;;;;8.27;4.87;;;;;;;-143.84;35.82;44978.63;4992030;28;20894;-60
2023/05/30 08:18:52;;;;;;;14.20;4.97;;;;;;;-143.84;35.28;44976.72;4992115;28;20484;-60
2023/05/30 08:21:19;;;;;;;5.93;4.87;;;;;;;-143.84;35.58;44971.00;4992185;28;20511;-60
2023/05/30 08:23:46;;;;;;;9.13;5.40;;;;;;;-143.84;36.03;44963.38;4991766;28;20504;-60
2023/05/30 08:26:13;;;;;;;8.00;4.30;;;;;;;-143.84;35.84;44978.63;4991553;28;20448;-60
2023/05/30 08:28:41;;;;;;;6.90;4.90;;;;;;;-143.84;37.47;44991.94;4991619;28;21010;-60
2023/05/30 08:31:08;;;;;;;11.13;5.30;;;;;;;-143.84;36.88;44972.91;4991762;28;20445;-60
2023/05/30 08:33:36;;;;;;;10.30;4.70;;;;;;;-143.84;36.54;44978.63;4991830;28;20441;-60
2023/05/30 08:36:05;;;;;;;9.10;5.23;;;;;;;-143.84;36.31;44995.75;4991968;28;20441;-60
2023/05/30 08:38:33;;;;;;;6.80;4.40;;;;;;;-143.84;37.39;45003.38;4991732;28;20461;-60
2023/05/30 08:41:00;;;;;;;9.83;5.77;;;;;;;-143.84;36.79;44982.41;4991514;28;20817;-60
2023/05/30 08:43:28;;;;;;;6.87;5.23;;;;;;;-143.84;36.50;44999.56;4991571;28;20519;-60
2023/05/30 08:45:55;;;;;;;16.00;5.17;;;;;;;-143.84;36.90;45014.78;4991549;28;20476;-60
2023/05/30 08:48:25;;;;;;;6.10;4.73;;;;;;;-143.84;36.52;44995.75;4991514;28;20445;-60
2023/05/30 08:50:53;;;;;;;6.13;4.70;;;;;;;-143.84;37.09;44976.72;4991148;28;20892;-60
2023/05/30 08:53:37;;;;;;;11.70;4.23;;;;;;;-143.84;38.12;44984.31;4990525;28;20480;-60
2023/05/30 08:56:11;;;;;;;10.53;4.83;;;;;;;-143.84;37.07;44982.41;4990999;28;20449;-60
2023/05/30 08:58:43;;;;;;;4.80;4.40;;;;;;;-143.84;37.75;44988.13;4991145;28;20515;-60
2023/05/30 09:01:11;;;;;;;7.60;4.67;;;;;;;-143.84;36.29;45007.19;4991194;28;20450;-60
2023/05/30 09:03:43;;;;;;;8.63;5.40;;;;;;;-143.84;36.16;45003.38;4990417;28;20445;-60
2023/05/30 09:06:11;;;;;;;7.40;5.30;;;;;;;-143.84;36.73;44997.66;4991080;28;20437;-60
2023/05/30 09:08:43;;;;;;;10.10;4.47;;;;;;;-143.84;37.73;45020.50;4990816;28;20444;-60
2023/05/30 09:11:11;;;;;;;10.77;4.57;;;;;;;-143.84;37.84;45009.09;4990812;28;20558;-60
2023/05/30 09:13:40;;;;;;;5.47;4.57;;;;;;;-143.84;37.16;45014.78;4990951;28;20457;-60
2023/05/30 09:16:07;;;;;;;12.03;4.97;;;;;;;-143.84;36.83;45030.03;4990939;28;20944;-60
2023/05/30 09:18:34;;;;;;;5.97;4.23;;;;;;;-143.84;37.53;45033.84;4990923;28;20454;-60
2023/05/30 09:21:02;;;;;;;17.50;5.70;;;;;;;-143.84;38.78;45022.41;4990546;28;20481;-60
2023/05/30 09:23:30;;;;;;;8.03;5.47;;;;;;;-143.84;37.32;45012.88;4990456;28;20456;-60
2023/05/30 09:26:00;;;;;;;6.27;4.53;;;;;;;-143.84;36.85;45047.16;4990666;28;20459;-60
2023/05/30 09:28:29;;;;;;;7.63;5.07;;;;;;;-143.84;36.17;44995.75;4990544;28;20445;-60
2023/05/30 09:30:57;;;;;;;9.07;5.37;;;;;;;-143.84;36.48;45037.66;4990132;28;20445;-60
2023/05/30 09:33:25;;;;;;;12.17;4.70;;;;;;;-143.84;36.29;45012.88;4990569;28;20440;-60
2023/05/30 09:35:53;;;;;;;18.43;5.00;;;;;;;-143.84;36.46;45045.25;4990372;28;20441;-60
2023/05/30 09:38:22;;;;;;;7.90;5.20;;;;;;;-143.84;36.75;45033.84;4990606;28;20513;-60
2023/05/30 09:40:51;;;;;;;13.47;4.50;;;;;;;-143.84;37.35;45014.78;4990467;28;20480;-60
2023/05/30 09:43:34;;;;;;;12.80;5.37;;;;;;;-143.84;36.67;45003.38;4990301;28;20441;-60
2023/05/30 09:46:03;;;;;;;12.90;4.70;;;;;;;-143.84;36.47;44999.56;4990252;28;20456;-60
2023/05/30 09:48:30;;;;;;;10.13;4.47;;;;;;;-143.84;35.76;45041.44;4990387;28;20477;-60
2023/05/30 09:51:00;;;;;;;12.23;5.03;;;;;;;-143.84;35.94;45028.13;4990497;28;20491;-60
2023/05/30 09:53:29;;;;;;;6.80;4.40;;;;;;;-143.84;36.36;45030.03;4990176;28;20444;-60
2023/05/30 09:55:57;;;;;;;6.70;5.00;;;;;;;-143.84;36.32;44999.56;4990230;28;20468;-60
2023/05/30 09:58:24;;;;;;;10.03;4.57;;;;;;;-143.84;36.89;45016.69;4989977;28;20440;-60
2023/05/30 10:00:54;;;;;;;7.20;4.93;;;;;;;-143.84;37.67;45022.41;4989915;28;20557;-54
2023/05/30 10:03:22;;;;;;;7.80;4.50;;;;;;;-143.84;37.41;45037.66;4990183;28;20449;-54
2023/05/30 10:05:49;;;;;;;5.37;4.43;;;;;;;-143.84;37.47;45028.13;4989819;28;21050;-54
2023/05/30 10:08:17;;;;;;;4.77;4.30;;;;;;;-143.84;36.86;45026.22;4989534;28;20524;-54
2023/05/30 10:10:44;;;;;;;4.90;4.50;;;;;;;-143.84;36.89;45012.88;4989806;28;21248;-55
2023/05/30 10:13:11;;;;;;;7.40;4.67;;;;;;;-143.84;37.51;45010.97;4989665;28;20795;-55
2023/05/30 10:15:39;;;;;;;6.80;5.30;;;;;;;-143.84;39.21;45026.22;4989841;28;20976;-55
2023/05/30 10:18:09;;;;;;;7.63;5.33;;;;;;;-143.84;41.37;45020.50;4989778;28;20955;-54
2023/05/30 10:20:38;;;;;;;5.63;5.10;;;;;;;-143.84;41.64;44991.94;4989891;28;20481;-55
2023/05/30 10:23:07;;;;;;;15.43;5.50;;;;;;;-143.84;42.87;45018.59;4990036;28;20862;-54
2023/05/30 10:25:37;;;;;;;15.83;6.13;;;;;;;-143.84;45.43;45030.03;4989820;28;20475;-55
2023/05/30 10:28:07;;;;;;;11.80;7.13;;;;;;;-143.84;47.46;45018.59;4990110;28;21361;-54
2023/05/30 10:30:35;;;;;;;7.93;7.13;;;;;;;-143.84;50.22;45037.66;4989661;28;20484;-54
2023/05/30 10:33:06;;;;;;;12.00;8.20;;;;;;;-143.84;56.30;45058.59;4989702;28;20445;-54
2023/05/30 10:35:35;;;;;;;16.83;7.37;;;;;;;-143.84;58.28;45068.13;4989601;28;20935;-54
2023/05/30 10:38:04;;;;;;;14.47;8.10;;;;;;;-143.84;58.88;45045.25;4989677;28;20492;-54
2023/05/30 10:40:47;;;;;;;11.13;8.00;;;;;;;-143.84;57.88;45033.84;4989522;28;20485;-54
2023/05/30 10:43:37;;;;;;;18.40;8.13;;;;;;;-143.84;58.52;45045.25;4989673;28;20437;-54
2023/05/30 10:46:19;;;;;;;21.20;8.53;;;;;;;-143.84;56.66;45054.78;4989465;28;20441;-54
2023/05/30 10:48:52;;;;;;;10.50;6.80;;;;;;;-143.84;53.61;45031.94;4969704;28;20569;-55
2023/05/30 10:51:21;;;;;;;10.03;6.37;;;;;;;-143.84;53.63;45041.44;4970170;28;20450;-55
2023/05/30 10:53:49;;;;;;;8.57;6.60;;;;;;;-143.84;53.33;45033.84;4970010;28;20446;-55
2023/05/30 10:56:32;;;;;;;8.67;7.87;;;;;;;-143.84;52.09;45020.50;4970128;28;20453;-54
2023/05/30 10:59:02;;;;;;;11.10;7.73;;;;;;;-143.84;52.20;45045.25;4970147;28;20446;-55
2023/05/30 11:01:30;;;;;;;12.57;8.13;;;;;;;-143.84;51.91;45039.53;4969823;28;20482;-54
2023/05/30 11:03:59;;;;;;;10.10;7.90;;;;;;;-143.84;52.02;45049.06;4969658;28;20490;-55
2023/05/30 11:06:29;;;;;;;14.17;8.40;;;;;;;-143.84;53.64;45026.22;4970064;28;20448;-54
2023/05/30 11:09:05;;;;;;;15.20;8.37;;;;;;;-143.84;52.41;45031.94;4969957;28;20566;-55
2023/05/30 11:11:40;;;;;;;17.03;8.57;;;;;;;-143.84;52.12;45030.03;4969741;28;20441;-54
2023/05/30 11:14:08;;;;;;;17.53;6.90;;;;;;;-143.84;52.56;45062.41;4969914;28;20863;-54
2023/05/30 11:16:48;;;;;;;7.77;6.13;;;;;;;-143.84;53.09;45031.94;4969815;28;21017;-54